ěÝzenÝ letovÚho provozu ╚eskÚ republiky
Letiste: LKBC Aktualizace: 27.10.2020 00:55:24  UTC
 METAR LKBC 27.10. 01:00 ...
METAR LKBC 270100Z AUTO 27003KT 9999 -RA OVC032 07/06 Q1009=